createdAt,value
2016-08-13T04:00:47.923Z,21.13
2016-08-13T04:01:13.562Z,21.05
2016-08-13T04:02:16.787Z,21.08
2016-08-13T04:03:25.071Z,21.05
2016-08-13T04:04:23.148Z,21.11
2016-08-13T04:04:48.721Z,21.14
2016-08-13T04:05:14.285Z,21.09
2016-08-13T04:05:39.839Z,21.13
2016-08-13T04:06:05.395Z,21.14
2016-08-13T04:06:30.961Z,21.11
2016-08-13T04:06:56.724Z,21.08
2016-08-13T04:07:22.283Z,21.09
2016-08-13T04:07:47.838Z,21.14
2016-08-13T04:08:13.392Z,21.19
2016-08-13T04:08:38.938Z,21.17
2016-08-13T04:09:04.498Z,21.08
2016-08-13T04:09:30.055Z,21.08
2016-08-13T04:09:55.596Z,21.17
2016-08-13T04:10:21.163Z,21.08
2016-08-13T04:10:46.828Z,21.09
2016-08-13T04:11:12.362Z,21.2
2016-08-13T04:11:37.907Z,21.19
2016-08-13T04:12:03.636Z,21.17
2016-08-13T04:12:29.173Z,21.09
2016-08-13T04:12:54.743Z,21.09
2016-08-13T04:13:20.428Z,21.11
2016-08-13T04:13:45.991Z,21.16
2016-08-13T04:14:11.548Z,21.13
2016-08-13T04:14:37.263Z,21.09
2016-08-13T04:15:02.871Z,21.17
2016-08-13T04:15:28.421Z,21.14
2016-08-13T04:15:53.971Z,21.19
2016-08-13T04:16:19.591Z,21.06
2016-08-13T04:16:45.177Z,21.13
2016-08-13T04:17:10.740Z,21.21
2016-08-13T04:17:36.307Z,21.16
2016-08-13T04:18:01.855Z,21.14
2016-08-13T04:18:27.411Z,21.17
2016-08-13T04:18:52.969Z,21.21
2016-08-13T04:19:18.526Z,21.17
2016-08-13T04:19:44.099Z,21.16
2016-08-13T04:20:09.653Z,21.13
2016-08-13T04:20:35.203Z,21.08
2016-08-13T04:21:00.762Z,21.14
2016-08-13T04:21:26.306Z,21.09
2016-08-13T04:21:51.864Z,21.19
2016-08-13T04:22:17.611Z,21.14
2016-08-13T04:22:43.169Z,21.17
2016-08-13T04:23:08.731Z,21.13
2016-08-13T04:23:34.288Z,21.14
2016-08-13T04:23:59.853Z,21.17
2016-08-13T04:24:25.421Z,21.16
2016-08-13T04:24:51.006Z,21.19
2016-08-13T04:25:16.566Z,21.13
2016-08-13T04:25:42.111Z,21.09
2016-08-13T04:26:07.727Z,21.11
2016-08-13T04:26:33.274Z,21.06
2016-08-13T04:26:58.841Z,21.09
2016-08-13T04:27:24.479Z,21.06
2016-08-13T04:27:50.089Z,21.11
2016-08-13T04:28:15.653Z,21.16
2016-08-13T04:28:41.214Z,21.09
2016-08-13T04:29:06.773Z,21.11
2016-08-13T04:29:32.326Z,21.19
2016-08-13T04:29:57.893Z,21.06
2016-08-13T04:30:23.440Z,21.09
2016-08-13T04:30:48.975Z,21.09
2016-08-13T04:31:14.518Z,21.17
2016-08-13T04:31:40.086Z,21.2
2016-08-13T04:32:05.627Z,21.08
2016-08-13T04:32:31.170Z,21.14
2016-08-13T04:32:56.714Z,21.14
2016-08-13T04:33:22.262Z,21.17
2016-08-13T04:33:47.802Z,21.13
2016-08-13T04:34:13.448Z,21.16
2016-08-13T04:34:38.987Z,21.14
2016-08-13T04:35:04.551Z,21.13
2016-08-13T04:35:30.100Z,21.17
2016-08-13T04:36:25.004Z,21.17
2016-08-13T04:38:31.445Z,21.13
2016-08-13T04:38:57.030Z,21.17
2016-08-13T04:39:22.587Z,21.17
2016-08-13T04:39:48.181Z,21.16
2016-08-13T04:40:13.796Z,21.16
2016-08-13T04:40:39.349Z,21.13
2016-08-13T04:41:04.916Z,21.19
2016-08-13T04:41:30.616Z,21.19
2016-08-13T04:41:56.199Z,21.19
2016-08-13T04:42:21.763Z,21.14
2016-08-13T04:42:47.322Z,21.21
2016-08-13T04:43:12.874Z,21.13
2016-08-13T04:43:38.422Z,21.13
2016-08-13T04:44:03.997Z,21.14
2016-08-13T04:44:29.527Z,21.05
2016-08-13T04:44:55.072Z,21.11
2016-08-13T04:45:20.596Z,21.17
2016-08-13T04:45:46.171Z,21.06
2016-08-13T04:46:11.724Z,21.13
2016-08-13T04:46:37.263Z,21.19
2016-08-13T04:47:02.790Z,21.17
2016-08-13T04:47:28.342Z,21.21
2016-08-13T04:47:53.925Z,21.21
2016-08-13T04:48:19.466Z,21.2
2016-08-13T04:48:45.034Z,21.13
2016-08-13T04:49:10.579Z,21.17
2016-08-13T04:49:36.127Z,21.14
2016-08-13T04:50:01.678Z,21.14
2016-08-13T04:50:27.209Z,21.21
2016-08-13T04:50:52.841Z,21.13
2016-08-13T04:51:18.407Z,21.17
2016-08-13T04:51:43.983Z,21.17
2016-08-13T04:52:09.547Z,21.14
2016-08-13T04:52:35.107Z,21.19
2016-08-13T04:53:00.671Z,21.2
2016-08-13T04:53:26.228Z,21.13
2016-08-13T04:53:51.796Z,21.13
2016-08-13T04:54:17.405Z,21.17
2016-08-13T04:54:42.947Z,21.2
2016-08-13T04:55:08.488Z,21.19
2016-08-13T04:55:34.021Z,21.17
2016-08-13T04:56:37.553Z,21.14
2016-08-13T04:57:25.381Z,21.17
2016-08-13T04:57:50.943Z,21.21
2016-08-13T04:58:16.490Z,21.17
2016-08-13T04:58:42.042Z,21.17
2016-08-13T04:59:07.606Z,21.14
2016-08-13T04:59:33.212Z,21.2
2016-08-13T04:59:58.777Z,21.16
2016-08-13T05:00:24.340Z,21.16
2016-08-13T05:00:49.978Z,21.13
2016-08-13T05:01:15.542Z,21.16
2016-08-13T05:02:23.900Z,21.13
2016-08-13T05:02:49.495Z,21.09
2016-08-13T05:03:15.047Z,21.21
2016-08-13T05:03:40.655Z,21.17
2016-08-13T05:04:06.226Z,21.14
2016-08-13T05:04:31.830Z,21.17
2016-08-13T05:04:57.406Z,21.17
2016-08-13T05:05:22.960Z,21.19
2016-08-13T05:05:48.745Z,21.21
2016-08-13T05:06:14.305Z,21.2
2016-08-13T05:06:39.886Z,21.16
2016-08-13T05:07:05.509Z,21.2
2016-08-13T05:07:31.088Z,21.2
2016-08-13T05:07:56.652Z,21.19
2016-08-13T05:08:22.283Z,21.14
2016-08-13T05:08:47.821Z,21.13
2016-08-13T05:09:13.385Z,21.19
2016-08-13T05:09:38.966Z,21.19
2016-08-13T05:10:26.817Z,21.13
2016-08-13T05:10:52.502Z,21.14
2016-08-13T05:11:18.124Z,21.19
2016-08-13T05:11:43.773Z,21.16
2016-08-13T05:12:09.343Z,21.17
2016-08-13T05:12:34.917Z,21.19
2016-08-13T05:13:00.487Z,21.17
2016-08-13T05:13:26.124Z,21.2
2016-08-13T05:13:51.710Z,21.14
2016-08-13T05:14:17.270Z,21.2
2016-08-13T05:14:42.834Z,21.19
2016-08-13T05:15:08.414Z,21.2
2016-08-13T05:15:33.991Z,21.17
2016-08-13T05:15:59.588Z,21.17
2016-08-13T05:16:25.158Z,21.2
2016-08-13T05:16:50.729Z,21.17
2016-08-13T05:17:16.315Z,21.23
2016-08-13T05:17:41.896Z,21.14
2016-08-13T05:18:07.552Z,21.17
2016-08-13T05:18:33.120Z,21.24
2016-08-13T05:18:58.682Z,21.17
2016-08-13T05:19:24.234Z,21.23
2016-08-13T05:19:49.810Z,21.17
2016-08-13T05:20:15.488Z,21.21
2016-08-13T05:20:41.158Z,21.23
2016-08-13T05:21:06.726Z,21.2
2016-08-13T05:21:32.302Z,21.19
2016-08-13T05:21:57.854Z,21.24
2016-08-13T05:22:23.416Z,21.14
2016-08-13T05:22:48.993Z,21.19
2016-08-13T05:23:14.554Z,21.23
2016-08-13T05:23:40.126Z,21.2
2016-08-13T05:24:05.695Z,21.2
2016-08-13T05:24:31.254Z,21.19
2016-08-13T05:24:56.831Z,21.13
2016-08-13T05:25:22.504Z,21.23
2016-08-13T05:25:48.053Z,21.23
2016-08-13T05:26:13.617Z,21.14
2016-08-13T05:26:39.240Z,21.2
2016-08-13T05:27:04.800Z,21.24
2016-08-13T05:27:30.350Z,21.21
2016-08-13T05:27:55.929Z,21.2
2016-08-13T05:28:21.487Z,21.26
2016-08-13T05:28:47.046Z,21.17
2016-08-13T05:29:12.597Z,21.26
2016-08-13T05:29:38.173Z,21.14
2016-08-13T05:30:03.781Z,21.11
2016-08-13T05:30:29.416Z,21.17
2016-08-13T05:30:55.039Z,21.14
2016-08-13T05:31:20.617Z,21.17
2016-08-13T05:31:46.248Z,21.14
2016-08-13T05:32:11.795Z,21.17
2016-08-13T05:32:37.354Z,21.23
2016-08-13T05:33:02.986Z,21.17
2016-08-13T05:33:28.562Z,21.21
2016-08-13T05:33:54.127Z,21.23
2016-08-13T05:34:19.697Z,21.14
2016-08-13T05:34:45.267Z,21.17
2016-08-13T05:35:10.851Z,21.2
2016-08-13T05:35:36.526Z,21.23
2016-08-13T05:36:02.093Z,21.11
2016-08-13T05:36:27.674Z,21.3
2016-08-13T05:36:53.227Z,21.2
2016-08-13T05:37:18.807Z,21.17
2016-08-13T05:37:44.400Z,21.26
2016-08-13T05:38:10.019Z,21.21
2016-08-13T05:38:35.597Z,21.14
2016-08-13T05:39:01.175Z,21.21
2016-08-13T05:39:26.742Z,21.11
2016-08-13T05:39:52.391Z,21.26
2016-08-13T05:40:45.470Z,21.14
2016-08-13T05:41:11.287Z,21.17
2016-08-13T05:41:36.866Z,21.17
2016-08-13T05:42:02.440Z,21.24
2016-08-13T05:42:27.994Z,21.16
2016-08-13T05:42:53.561Z,21.2
2016-08-13T05:43:19.131Z,21.29
2016-08-13T05:43:44.700Z,21.17
2016-08-13T05:44:10.386Z,21.19
2016-08-13T05:44:35.956Z,21.09
2016-08-13T05:45:01.528Z,21.19
2016-08-13T05:45:27.096Z,21.16
2016-08-13T05:45:52.742Z,21.16
2016-08-13T05:46:18.307Z,21.23
2016-08-13T05:46:43.874Z,21.19
2016-08-13T05:47:37.020Z,21.21
2016-08-13T05:48:02.781Z,21.27
2016-08-13T05:48:28.367Z,21.17
2016-08-13T05:48:53.938Z,21.16
2016-08-13T05:49:19.496Z,21.23
2016-08-13T05:49:45.181Z,21.21
2016-08-13T05:50:10.766Z,21.16
2016-08-13T05:50:36.306Z,21.14
2016-08-13T05:51:01.885Z,21.14
2016-08-13T05:51:27.444Z,21.21
2016-08-13T05:51:53.176Z,21.14
2016-08-13T05:52:18.733Z,21.19
2016-08-13T05:52:44.306Z,21.21
2016-08-13T05:53:09.899Z,21.17
2016-08-13T05:53:35.467Z,21.2
2016-08-13T05:54:01.043Z,21.14
2016-08-13T05:54:26.639Z,21.2
2016-08-13T05:54:52.216Z,21.17
2016-08-13T05:55:17.984Z,21.2
2016-08-13T05:55:43.596Z,21.23
2016-08-13T05:56:09.175Z,21.23
2016-08-13T05:56:34.743Z,21.2
2016-08-13T05:57:00.394Z,21.16
2016-08-13T05:57:25.976Z,21.14
2016-08-13T05:57:51.537Z,21.17
2016-08-13T05:58:17.196Z,21.19
2016-08-13T05:58:42.775Z,21.17
2016-08-13T05:59:08.329Z,21.14
2016-08-13T05:59:33.902Z,21.16
2016-08-13T05:59:59.479Z,21.2
2016-08-13T06:00:25.046Z,21.19
2016-08-13T06:01:23.133Z,21.19
2016-08-13T06:01:48.681Z,21.2
2016-08-13T06:02:14.255Z,21.11
2016-08-13T06:02:39.815Z,21.16
2016-08-13T06:03:05.516Z,21.2
2016-08-13T06:03:31.198Z,21.17
2016-08-13T06:03:56.833Z,21.24
2016-08-13T06:04:22.397Z,21.14
2016-08-13T06:04:48.047Z,21.17
2016-08-13T06:05:13.681Z,21.21
2016-08-13T06:05:39.255Z,21.19
2016-08-13T06:06:04.826Z,21.17
2016-08-13T06:06:30.495Z,21.11
2016-08-13T06:06:56.047Z,21.16
2016-08-13T06:07:21.618Z,21.2
2016-08-13T06:07:47.272Z,21.13
2016-08-13T06:08:12.850Z,21.19
2016-08-13T06:08:38.477Z,21.2
2016-08-13T06:09:04.035Z,21.14
2016-08-13T06:09:29.637Z,21.21
2016-08-13T06:09:55.255Z,21.2
2016-08-13T06:10:20.843Z,21.17
2016-08-13T06:10:46.508Z,21.16
2016-08-13T06:11:12.076Z,21.13
2016-08-13T06:11:37.624Z,21.08
2016-08-13T06:12:03.281Z,21.27
2016-08-13T06:12:28.865Z,21.14
2016-08-13T06:12:54.424Z,21.19
2016-08-13T06:13:20.385Z,21.17
2016-08-13T06:13:45.945Z,21.19
2016-08-13T06:14:11.517Z,21.2
2016-08-13T06:15:19.897Z,21.13
2016-08-13T06:16:23.072Z,21.2
2016-08-13T06:16:48.707Z,21.21
2016-08-13T06:17:14.293Z,21.21
2016-08-13T06:17:39.864Z,21.13
2016-08-13T06:18:05.418Z,21.2
2016-08-13T06:18:31.067Z,21.14
2016-08-13T06:18:56.614Z,21.2
2016-08-13T06:19:22.353Z,21.21
2016-08-13T06:19:47.907Z,21.14
2016-08-13T06:20:13.448Z,21.16
2016-08-13T06:20:39.009Z,21.2
2016-08-13T06:21:04.646Z,21.11
2016-08-13T06:21:30.212Z,21.17
2016-08-13T06:21:55.771Z,21.16
2016-08-13T06:22:21.337Z,21.2
2016-08-13T06:22:47.283Z,21.14
2016-08-13T06:23:12.843Z,21.2
2016-08-13T06:23:38.505Z,21.2
2016-08-13T06:24:04.039Z,21.19
2016-08-13T06:24:29.622Z,21.2
2016-08-13T06:24:55.202Z,21.08
2016-08-13T06:25:20.792Z,21.2
2016-08-13T06:25:46.416Z,21.17
2016-08-13T06:26:11.975Z,21.16
2016-08-13T06:26:37.630Z,21.14
2016-08-13T06:27:03.235Z,21.19
2016-08-13T06:27:28.743Z,21.19
2016-08-13T06:27:54.313Z,21.21
2016-08-13T06:28:19.965Z,21.17
2016-08-13T06:28:45.509Z,21.17
2016-08-13T06:29:11.207Z,21.14
2016-08-13T06:29:36.765Z,21.19
2016-08-13T06:30:02.330Z,21.23
2016-08-13T06:30:27.882Z,21.24
2016-08-13T06:30:53.482Z,21.11
2016-08-13T06:31:19.042Z,21.21
2016-08-13T06:31:44.606Z,21.23
2016-08-13T06:32:10.208Z,21.19
2016-08-13T06:32:35.797Z,21.11
2016-08-13T06:33:01.361Z,21.11
2016-08-13T06:33:26.964Z,21.21
2016-08-13T06:33:52.507Z,21.14
2016-08-13T06:34:18.219Z,21.16
2016-08-13T06:34:43.789Z,21.19
2016-08-13T06:35:09.345Z,21.26
2016-08-13T06:35:34.903Z,21.2
2016-08-13T06:36:00.480Z,21.14
2016-08-13T06:36:26.075Z,21.23
2016-08-13T06:36:51.652Z,21.26
2016-08-13T06:37:17.378Z,21.24
2016-08-13T06:37:43.005Z,21.2
2016-08-13T06:38:08.612Z,21.17
2016-08-13T06:38:34.202Z,21.17
2016-08-13T06:38:59.839Z,21.17
2016-08-13T06:39:25.416Z,21.23
2016-08-13T06:39:51.011Z,21.26
2016-08-13T06:40:16.587Z,21.26
2016-08-13T06:40:42.154Z,21.26
2016-08-13T06:41:07.743Z,21.14
2016-08-13T06:41:33.405Z,21.17
2016-08-13T06:41:58.978Z,21.29
2016-08-13T06:42:24.547Z,21.19
2016-08-13T06:42:50.246Z,21.26
2016-08-13T06:43:15.996Z,21.23
2016-08-13T06:43:41.567Z,21.27
2016-08-13T06:44:07.099Z,21.17
2016-08-13T06:44:32.690Z,21.26
2016-08-13T06:44:58.246Z,21.21
2016-08-13T06:45:24.484Z,21.19
2016-08-13T06:45:50.083Z,21.26
2016-08-13T06:46:15.640Z,21.26
2016-08-13T06:46:41.307Z,21.23
2016-08-13T06:47:06.922Z,21.26
2016-08-13T06:47:32.581Z,21.16
2016-08-13T06:47:58.119Z,21.24
2016-08-13T06:48:23.672Z,21.23
2016-08-13T06:48:49.210Z,21.17
2016-08-13T06:49:14.762Z,21.24
2016-08-13T06:50:23.106Z,21.24
2016-08-13T06:50:48.675Z,21.21
2016-08-13T06:51:14.244Z,21.26
2016-08-13T06:51:39.813Z,21.2
2016-08-13T06:52:05.388Z,21.21
2016-08-13T06:52:30.979Z,21.3
2016-08-13T06:52:56.665Z,21.24
2016-08-13T06:53:22.238Z,21.23
2016-08-13T06:53:47.793Z,21.29
2016-08-13T06:54:13.468Z,21.24
2016-08-13T06:54:39.083Z,21.21
2016-08-13T06:55:04.811Z,21.24
2016-08-13T06:55:30.261Z,21.21
2016-08-13T06:55:55.821Z,21.23
2016-08-13T06:56:21.782Z,21.27
2016-08-13T06:56:47.312Z,21.26
2016-08-13T06:57:12.904Z,21.24
2016-08-13T06:57:38.452Z,21.24
2016-08-13T06:58:04.025Z,21.24
2016-08-13T06:58:29.590Z,21.24
2016-08-13T06:58:55.180Z,21.21
2016-08-13T06:59:20.773Z,21.24
2016-08-13T07:00:24.239Z,21.23
2016-08-13T07:00:49.931Z,21.26
2016-08-13T07:01:15.439Z,21.24
2016-08-13T07:01:40.944Z,21.21
2016-08-13T07:02:06.517Z,21.2
2016-08-13T07:02:32.155Z,21.23
2016-08-13T07:02:57.727Z,21.24
2016-08-13T07:03:23.299Z,21.24
2016-08-13T07:03:48.847Z,21.24
2016-08-13T07:04:14.411Z,21.24
2016-08-13T07:04:39.967Z,21.29
2016-08-13T07:05:05.552Z,21.24
2016-08-13T07:05:31.120Z,21.3
2016-08-13T07:05:56.713Z,21.24
2016-08-13T07:06:22.298Z,21.27
2016-08-13T07:06:47.851Z,21.23
2016-08-13T07:07:13.480Z,21.26
2016-08-13T07:07:39.163Z,21.29
2016-08-13T07:08:04.751Z,21.27
2016-08-13T07:08:30.319Z,21.27
2016-08-13T07:08:56.086Z,21.26
2016-08-13T07:09:21.714Z,21.27
2016-08-13T07:09:47.248Z,21.27
2016-08-13T07:10:12.823Z,21.24
2016-08-13T07:10:38.386Z,21.3
2016-08-13T07:11:03.946Z,21.26
2016-08-13T07:11:29.558Z,21.29
2016-08-13T07:12:27.817Z,21.26
2016-08-13T07:12:53.386Z,21.26
2016-08-13T07:13:18.952Z,21.26
2016-08-13T07:13:44.520Z,21.24
2016-08-13T07:14:10.093Z,21.32
2016-08-13T07:14:35.755Z,21.26
2016-08-13T07:15:01.300Z,21.24
2016-08-13T07:15:26.916Z,21.29
2016-08-13T07:15:52.669Z,21.27
2016-08-13T07:16:18.212Z,21.3
2016-08-13T07:16:43.841Z,21.24
2016-08-13T07:17:09.404Z,21.29
2016-08-13T07:17:34.952Z,21.29
2016-08-13T07:18:00.507Z,21.29
2016-08-13T07:18:26.130Z,21.3
2016-08-13T07:18:51.687Z,21.27
2016-08-13T07:19:17.226Z,21.24
2016-08-13T07:19:42.799Z,21.26
2016-08-13T07:20:08.444Z,21.27
2016-08-13T07:20:33.993Z,21.29
2016-08-13T07:20:59.554Z,21.26
2016-08-13T07:21:25.111Z,21.26
2016-08-13T07:21:50.682Z,21.24
2016-08-13T07:22:16.288Z,21.26
2016-08-13T07:22:42.122Z,21.29
2016-08-13T07:23:07.698Z,21.26
2016-08-13T07:23:33.255Z,21.29
2016-08-13T07:23:58.829Z,21.23
2016-08-13T07:24:24.513Z,21.27
2016-08-13T07:24:50.053Z,21.3
2016-08-13T07:25:15.622Z,21.32
2016-08-13T07:25:41.172Z,21.26
2016-08-13T07:26:06.745Z,21.27
2016-08-13T07:26:32.327Z,21.3
2016-08-13T07:26:57.952Z,21.35
2016-08-13T07:27:23.649Z,21.35
2016-08-13T07:27:49.138Z,21.3
2016-08-13T07:28:14.707Z,21.32
2016-08-13T07:28:40.277Z,21.29
2016-08-13T07:29:05.849Z,21.26
2016-08-13T07:29:31.417Z,21.32
2016-08-13T07:29:56.997Z,21.26
2016-08-13T07:30:22.625Z,21.3
2016-08-13T07:30:48.199Z,21.26
2016-08-13T07:31:13.754Z,21.3
2016-08-13T07:31:39.351Z,21.3
2016-08-13T07:32:04.914Z,21.36
2016-08-13T07:32:30.506Z,21.29
2016-08-13T07:32:56.074Z,21.26
2016-08-13T07:33:21.655Z,21.29
2016-08-13T07:33:47.236Z,21.3
2016-08-13T07:34:12.792Z,21.34
2016-08-13T07:34:38.394Z,21.34
2016-08-13T07:35:04.063Z,21.36
2016-08-13T07:35:29.654Z,21.3
2016-08-13T07:35:55.382Z,21.32
2016-08-13T07:36:20.946Z,21.32
2016-08-13T07:36:46.546Z,21.26
2016-08-13T07:37:12.108Z,21.35
2016-08-13T07:37:37.676Z,21.35
2016-08-13T07:38:03.257Z,21.29
2016-08-13T07:38:28.827Z,21.35
2016-08-13T07:38:54.512Z,21.29
2016-08-13T07:39:20.031Z,21.27
2016-08-13T07:39:45.675Z,21.34
2016-08-13T07:40:11.243Z,21.34
2016-08-13T07:40:36.876Z,21.36
2016-08-13T07:41:02.448Z,21.35
2016-08-13T07:41:28.006Z,21.36
2016-08-13T07:41:53.578Z,21.34
2016-08-13T07:42:19.114Z,21.35
2016-08-13T07:42:44.723Z,21.36
2016-08-13T07:43:10.318Z,21.34
2016-08-13T07:43:35.932Z,21.35
2016-08-13T07:44:01.536Z,21.35
2016-08-13T07:44:27.513Z,21.34
2016-08-13T07:44:53.179Z,21.34
2016-08-13T07:45:18.835Z,21.34
2016-08-13T07:45:44.402Z,21.35
2016-08-13T07:46:09.991Z,21.36
2016-08-13T07:46:35.634Z,21.36
2016-08-13T07:47:01.195Z,21.39
2016-08-13T07:47:26.751Z,21.36
2016-08-13T07:47:52.308Z,21.36
2016-08-13T07:48:17.879Z,21.36
2016-08-13T07:48:43.456Z,21.34
2016-08-13T07:49:09.029Z,21.36
2016-08-13T07:49:34.624Z,21.38
2016-08-13T07:50:00.164Z,21.35
2016-08-13T07:50:25.792Z,21.42
2016-08-13T07:50:51.367Z,21.36
2016-08-13T07:51:16.998Z,21.41
2016-08-13T07:51:42.617Z,21.3
2016-08-13T07:52:08.175Z,21.41
2016-08-13T07:52:33.712Z,21.41
2016-08-13T07:52:59.381Z,21.42
2016-08-13T07:53:24.944Z,21.38
2016-08-13T07:53:50.527Z,21.34
2016-08-13T07:54:16.167Z,21.41
2016-08-13T07:54:41.703Z,21.39
2016-08-13T07:55:07.254Z,21.32
2016-08-13T07:55:32.821Z,21.41
2016-08-13T07:55:58.329Z,21.36
2016-08-13T07:56:23.877Z,21.36
2016-08-13T07:56:49.437Z,21.35
2016-08-13T07:57:14.988Z,21.35
2016-08-13T07:57:40.550Z,21.41
2016-08-13T07:58:06.121Z,21.38
2016-08-13T07:58:31.649Z,21.38
2016-08-13T07:58:57.189Z,21.39
2016-08-13T07:59:22.733Z,21.42
2016-08-13T07:59:48.286Z,21.39
2016-08-13T08:00:13.848Z,21.39
2016-08-13T08:00:39.400Z,21.41
2016-08-13T08:01:04.957Z,21.42
2016-08-13T08:01:30.520Z,21.39
2016-08-13T08:01:56.057Z,21.39
2016-08-13T08:02:21.616Z,21.45
2016-08-13T08:02:47.202Z,21.38
2016-08-13T08:03:12.753Z,21.46
2016-08-13T08:03:38.370Z,21.41
2016-08-13T08:04:26.244Z,21.41
2016-08-13T08:04:51.813Z,21.39
2016-08-13T08:05:17.355Z,21.44
2016-08-13T08:05:42.939Z,21.42
2016-08-13T08:06:08.470Z,21.45
2016-08-13T08:06:34.044Z,21.5
2016-08-13T08:06:59.608Z,21.35
2016-08-13T08:07:25.186Z,21.46
2016-08-13T08:07:50.762Z,21.48
2016-08-13T08:08:16.468Z,21.44
2016-08-13T08:08:42.031Z,21.45
2016-08-13T08:09:07.593Z,21.42
2016-08-13T08:09:33.147Z,21.44
2016-08-13T08:09:58.705Z,21.41
2016-08-13T08:10:24.272Z,21.41
2016-08-13T08:10:49.840Z,21.35
2016-08-13T08:11:15.418Z,21.38
2016-08-13T08:11:41.050Z,21.46
2016-08-13T08:12:06.651Z,21.42
2016-08-13T08:12:32.221Z,21.38
2016-08-13T08:12:57.842Z,21.46
2016-08-13T08:13:23.368Z,21.41
2016-08-13T08:13:48.950Z,21.44
2016-08-13T08:14:14.514Z,21.45
2016-08-13T08:14:40.167Z,21.46
2016-08-13T08:15:27.994Z,21.44
2016-08-13T08:15:53.576Z,21.42
2016-08-13T08:16:19.148Z,21.41
2016-08-13T08:16:44.797Z,21.46
2016-08-13T08:17:10.375Z,21.42
2016-08-13T08:17:35.944Z,21.42
2016-08-13T08:18:01.517Z,21.41
2016-08-13T08:18:27.076Z,21.46
2016-08-13T08:18:52.641Z,21.39
2016-08-13T08:19:18.188Z,21.44
2016-08-13T08:19:43.767Z,21.41
2016-08-13T08:20:09.320Z,21.42
2016-08-13T08:20:34.892Z,21.44
2016-08-13T08:21:00.485Z,21.44
2016-08-13T08:21:26.019Z,21.44
2016-08-13T08:21:51.592Z,21.38
2016-08-13T08:22:17.155Z,21.44
2016-08-13T08:22:42.754Z,21.5
2016-08-13T08:23:08.307Z,21.46
2016-08-13T08:23:33.868Z,21.48
2016-08-13T08:23:59.478Z,21.46
2016-08-13T08:24:25.039Z,21.5
2016-08-13T08:24:50.570Z,21.46
2016-08-13T08:25:16.118Z,21.46
2016-08-13T08:25:41.665Z,21.5
2016-08-13T08:26:07.223Z,21.46
2016-08-13T08:26:32.765Z,21.46
2016-08-13T08:26:58.623Z,21.45
2016-08-13T08:27:24.176Z,21.44
2016-08-13T08:28:32.473Z,21.42
2016-08-13T08:28:58.114Z,21.44
2016-08-13T08:29:23.676Z,21.38
2016-08-13T08:29:49.263Z,21.46
2016-08-13T08:30:14.811Z,21.41
2016-08-13T08:30:40.386Z,21.46
2016-08-13T08:31:05.954Z,21.42
2016-08-13T08:31:31.510Z,21.46
2016-08-13T08:31:57.105Z,21.34
2016-08-13T08:32:22.692Z,21.45
2016-08-13T08:32:48.241Z,21.39
2016-08-13T08:33:14.015Z,21.45
2016-08-13T08:33:39.587Z,21.38
2016-08-13T08:34:05.166Z,21.42
2016-08-13T08:34:30.724Z,21.44
2016-08-13T08:34:56.482Z,21.41
2016-08-13T08:35:22.045Z,21.41
2016-08-13T08:35:47.632Z,21.44
2016-08-13T08:36:13.216Z,21.38
2016-08-13T08:36:38.777Z,21.44
2016-08-13T08:37:04.395Z,21.41
2016-08-13T08:37:30.086Z,21.39
2016-08-13T08:37:55.632Z,21.46
2016-08-13T08:38:21.205Z,21.46
2016-08-13T08:38:46.884Z,21.35
2016-08-13T08:39:12.470Z,21.44
2016-08-13T08:39:38.016Z,21.38
2016-08-13T08:40:03.589Z,21.45
2016-08-13T08:40:29.233Z,21.44
2016-08-13T08:40:54.856Z,21.46
2016-08-13T08:41:20.445Z,21.38
2016-08-13T08:41:46.015Z,21.44
2016-08-13T08:42:11.663Z,21.44
2016-08-13T08:42:37.226Z,21.46
2016-08-13T08:43:02.785Z,21.48
2016-08-13T08:43:28.524Z,21.46
2016-08-13T08:43:54.109Z,21.39
2016-08-13T08:44:19.656Z,21.41
2016-08-13T08:44:45.250Z,21.39
2016-08-13T08:45:10.766Z,21.44
2016-08-13T08:45:36.300Z,21.44
2016-08-13T08:46:01.868Z,21.41
2016-08-13T08:46:27.401Z,21.41
2016-08-13T08:46:52.947Z,21.41
2016-08-13T08:47:18.495Z,21.44
2016-08-13T08:47:44.133Z,21.39
2016-08-13T08:48:09.671Z,21.36
2016-08-13T08:48:35.247Z,21.41
2016-08-13T08:49:00.820Z,21.44
2016-08-13T08:49:26.374Z,21.41
2016-08-13T08:49:51.928Z,21.39
2016-08-13T08:50:17.466Z,21.45
2016-08-13T08:50:43.014Z,21.46
2016-08-13T08:51:08.872Z,21.41
2016-08-13T08:51:34.558Z,21.38
2016-08-13T08:52:00.124Z,21.44
2016-08-13T08:52:25.680Z,21.41
2016-08-13T08:52:51.225Z,21.36
2016-08-13T08:53:16.776Z,21.42
2016-08-13T08:53:42.345Z,21.42
2016-08-13T08:54:07.917Z,21.46
2016-08-13T08:54:33.567Z,21.44
2016-08-13T08:54:59.232Z,21.39
2016-08-13T08:55:24.808Z,21.46
2016-08-13T08:55:50.362Z,21.44
2016-08-13T08:56:15.901Z,21.44
2016-08-13T08:56:41.495Z,21.44
2016-08-13T08:57:07.081Z,21.45
2016-08-13T08:57:32.629Z,21.44
2016-08-13T08:57:58.175Z,21.46
2016-08-13T08:58:23.722Z,21.44
2016-08-13T08:58:49.377Z,21.44
2016-08-13T08:59:14.937Z,21.51
2016-08-13T08:59:40.480Z,21.45
2016-08-13T09:00:06.050Z,21.42
2016-08-13T09:00:31.774Z,21.34
2016-08-13T09:00:57.325Z,21.44
2016-08-13T09:01:22.891Z,21.42
2016-08-13T09:01:48.471Z,21.42
2016-08-13T09:02:14.197Z,21.36
2016-08-13T09:02:39.725Z,21.46
2016-08-13T09:03:05.284Z,21.46
2016-08-13T09:03:31.335Z,21.5
2016-08-13T09:03:56.922Z,21.41
2016-08-13T09:04:22.598Z,21.5
2016-08-13T09:04:48.138Z,21.39
2016-08-13T09:05:13.787Z,21.45
2016-08-13T09:05:39.522Z,21.41
2016-08-13T09:06:05.316Z,21.46
2016-08-13T09:06:30.868Z,21.39
2016-08-13T09:06:56.457Z,21.5
2016-08-13T09:07:22.045Z,21.44
2016-08-13T09:07:47.724Z,21.44
2016-08-13T09:08:13.290Z,21.45
2016-08-13T09:08:38.849Z,21.42
2016-08-13T09:09:04.419Z,21.44
2016-08-13T09:09:30.081Z,21.5
2016-08-13T09:09:55.636Z,21.51
2016-08-13T09:10:21.197Z,21.39
2016-08-13T09:10:46.784Z,21.44
2016-08-13T09:11:12.380Z,21.44
2016-08-13T09:11:37.957Z,21.42
2016-08-13T09:12:03.499Z,21.44
2016-08-13T09:12:29.117Z,21.46
2016-08-13T09:12:54.662Z,21.42
2016-08-13T09:13:20.222Z,21.45
2016-08-13T09:13:45.791Z,21.45
2016-08-13T09:14:11.366Z,21.39
2016-08-13T09:14:37.027Z,21.39
2016-08-13T09:15:02.577Z,21.42
2016-08-13T09:15:28.175Z,21.39
2016-08-13T09:15:53.822Z,21.38
2016-08-13T09:16:19.375Z,21.41
2016-08-13T09:16:44.957Z,21.44
2016-08-13T09:17:10.510Z,21.42
2016-08-13T09:17:36.086Z,21.44
2016-08-13T09:18:01.653Z,21.46
2016-08-13T09:18:27.610Z,21.44
2016-08-13T09:18:53.341Z,21.46
2016-08-13T09:19:19.229Z,21.46
2016-08-13T09:19:44.800Z,21.46
2016-08-13T09:20:10.363Z,21.45
2016-08-13T09:20:35.941Z,21.36
2016-08-13T09:21:01.598Z,21.48
2016-08-13T09:21:27.191Z,21.42
2016-08-13T09:21:52.756Z,21.38
2016-08-13T09:22:18.313Z,21.48
2016-08-13T09:22:43.897Z,21.5
2016-08-13T09:23:09.485Z,21.48
2016-08-13T09:23:35.076Z,21.44
2016-08-13T09:24:00.654Z,21.46
2016-08-13T09:24:26.224Z,21.44
2016-08-13T09:24:51.775Z,21.51
2016-08-13T09:25:17.354Z,21.5
2016-08-13T09:25:42.918Z,21.51
2016-08-13T09:26:08.548Z,21.48
2016-08-13T09:26:34.113Z,21.51
2016-08-13T09:26:59.686Z,21.46
2016-08-13T09:27:25.239Z,21.42
2016-08-13T09:27:50.795Z,21.46
2016-08-13T09:28:16.390Z,21.46
2016-08-13T09:28:41.966Z,21.54
2016-08-13T09:29:07.531Z,21.53
2016-08-13T09:29:33.090Z,21.48
2016-08-13T09:29:58.783Z,21.48
2016-08-13T09:30:24.358Z,21.54
2016-08-13T09:30:49.989Z,21.41
2016-08-13T09:31:15.565Z,21.46
2016-08-13T09:31:41.143Z,21.44
2016-08-13T09:32:06.716Z,21.48
2016-08-13T09:32:32.305Z,21.44
2016-08-13T09:32:57.871Z,21.48
2016-08-13T09:33:23.452Z,21.48
2016-08-13T09:33:49.003Z,21.48
2016-08-13T09:34:14.577Z,21.46
2016-08-13T09:34:40.145Z,21.46
2016-08-13T09:35:05.781Z,21.46
2016-08-13T09:35:31.341Z,21.46
2016-08-13T09:35:56.913Z,21.5
2016-08-13T09:36:22.466Z,21.5
2016-08-13T09:36:48.034Z,21.53
2016-08-13T09:37:13.583Z,21.5
2016-08-13T09:37:39.240Z,21.46
2016-08-13T09:38:04.833Z,21.5
2016-08-13T09:38:30.411Z,21.5
2016-08-13T09:38:56.035Z,21.48
2016-08-13T09:39:21.612Z,21.51
2016-08-13T09:39:47.214Z,21.51
2016-08-13T09:40:12.790Z,21.51
2016-08-13T09:40:38.341Z,21.5
2016-08-13T09:41:03.953Z,21.46
2016-08-13T09:41:29.540Z,21.5
2016-08-13T09:41:55.224Z,21.48
2016-08-13T09:42:20.795Z,21.51
2016-08-13T09:43:29.123Z,21.53
2016-08-13T09:43:54.872Z,21.5
2016-08-13T09:44:20.464Z,21.54